Time;durP1;ratioP1;P1;durP2;ratioP2;P2;SDS_P1;SDS_P2;PMS_P1;PMS_P2;Temp;Humidity;BMP_temperature;BMP_pressure;BME280_temperature;BME280_humidity;BME280_pressure;Samples;Min_cycle;Max_cycle;Signal;HPM_P1;HPM_P2
2023/07/09 00:02:18;;;;;;;11.07;7.50;;;23.70;99.90;;;;;;5093911;28;20051;-70
2023/07/09 00:04:44;;;;;;;10.03;7.03;;;23.70;99.90;;;;;;5094100;28;20475;-69
2023/07/09 00:07:24;;;;;;;12.63;7.33;;;23.60;99.90;;;;;;5093963;28;20044;-69
2023/07/09 00:09:50;;;;;;;11.87;7.03;;;23.70;99.90;;;;;;5094008;28;20048;-69
2023/07/09 00:12:17;;;;;;;10.50;7.77;;;23.60;99.90;;;;;;5092694;28;20051;-70
2023/07/09 00:14:44;;;;;;;11.47;7.47;;;23.60;99.90;;;;;;5092600;28;20388;-69
2023/07/09 00:17:33;;;;;;;12.00;7.10;;;23.50;99.90;;;;;;5093753;28;20079;-69
2023/07/09 00:19:59;;;;;;;10.00;7.50;;;23.50;99.90;;;;;;5092769;28;20040;-69
2023/07/09 00:22:26;;;;;;;10.57;7.17;;;23.50;99.90;;;;;;5092309;28;20400;-70
2023/07/09 00:24:56;;;;;;;9.77;6.90;;;23.40;99.90;;;;;;5093654;28;20515;-69
2023/07/09 00:27:25;;;;;;;11.53;7.30;;;23.40;99.90;;;;;;5092094;28;20127;-69
2023/07/09 00:29:54;;;;;;;11.03;6.73;;;23.40;99.90;;;;;;5093068;28;20066;-69
2023/07/09 00:32:20;;;;;;;8.80;6.33;;;23.30;99.90;;;;;;5093323;28;20399;-69
2023/07/09 00:34:50;;;;;;;11.13;7.57;;;23.30;99.90;;;;;;5092946;28;20395;-69
2023/07/09 00:37:19;;;;;;;17.00;7.80;;;23.30;99.90;;;;;;5093445;28;20365;-72
2023/07/09 00:39:46;;;;;;;11.77;7.13;;;23.30;99.90;;;;;;5093332;28;20044;-69
2023/07/09 00:42:23;;;;;;;12.47;6.80;;;23.30;99.90;;;;;;5093365;28;20059;-69
2023/07/09 00:44:54;;;;;;;12.40;7.20;;;23.20;99.90;;;;;;5093448;28;20048;-69
2023/07/09 00:47:34;;;;;;;11.97;7.33;;;23.20;99.90;;;;;;5092952;28;20052;-70
2023/07/09 00:50:23;;;;;;;11.30;7.43;;;23.10;99.90;;;;;;5093064;28;20048;-69
2023/07/09 00:52:56;;;;;;;12.13;6.70;;;23.10;99.90;;;;;;5085404;28;20060;-69
2023/07/09 00:55:31;;;;;;;10.77;7.83;;;23.10;99.90;;;;;;5092861;28;20051;-70
2023/07/09 00:58:02;;;;;;;11.03;7.83;;;23.00;99.90;;;;;;5092242;28;20059;-69
2023/07/09 01:00:46;;;;;;;9.17;7.13;;;23.00;99.90;;;;;;5092863;28;20055;-69
2023/07/09 01:03:20;;;;;;;10.10;7.63;;;22.90;99.90;;;;;;5093201;28;20437;-69
2023/07/09 01:05:51;;;;;;;11.10;8.07;;;22.80;99.90;;;;;;5075609;28;20048;-69
2023/07/09 01:08:19;;;;;;;11.23;7.23;;;22.80;99.90;;;;;;5091930;28;20392;-69
2023/07/09 01:10:45;;;;;;;10.07;7.07;;;22.70;99.90;;;;;;5093030;28;20047;-69
2023/07/09 01:13:11;;;;;;;9.83;7.10;;;22.70;99.90;;;;;;5092884;28;20387;-70
2023/07/09 01:15:37;;;;;;;10.93;6.70;;;22.70;99.90;;;;;;5092593;28;20189;-70
2023/07/09 01:18:06;;;;;;;10.03;7.03;;;22.70;99.90;;;;;;5091841;28;20048;-69
2023/07/09 01:20:33;;;;;;;9.20;6.87;;;22.60;99.90;;;;;;5092488;28;20046;-70
2023/07/09 01:23:00;;;;;;;12.90;7.27;;;22.50;99.90;;;;;;5092461;28;20480;-69
2023/07/09 01:25:28;;;;;;;11.97;8.27;;;22.50;99.90;;;;;;5092475;28;20062;-69
2023/07/09 01:27:54;;;;;;;11.23;7.73;;;22.50;99.90;;;;;;5092660;28;20524;-69
2023/07/09 01:30:34;;;;;;;9.67;7.30;;;22.50;99.90;;;;;;5092389;28;20569;-69
2023/07/09 01:33:01;;;;;;;10.47;7.37;;;22.50;99.90;;;;;;5092795;28;20052;-70
2023/07/09 01:35:29;;;;;;;10.00;7.43;;;22.40;99.90;;;;;;5091096;28;20044;-70
2023/07/09 01:37:56;;;;;;;10.47;7.63;;;22.40;99.90;;;;;;5092881;28;20040;-70
2023/07/09 01:40:24;;;;;;;11.00;7.53;;;22.40;99.90;;;;;;5092607;28;20442;-70
2023/07/09 01:42:51;;;;;;;12.10;7.83;;;22.30;99.90;;;;;;5092793;28;20036;-70
2023/07/09 01:45:17;;;;;;;14.63;7.73;;;22.30;99.90;;;;;;5092621;28;20087;-70
2023/07/09 01:47:44;;;;;;;11.33;8.10;;;22.30;99.90;;;;;;5095256;28;20166;-70
2023/07/09 01:50:10;;;;;;;9.67;7.23;;;22.30;99.90;;;;;;5096408;28;20094;-70
2023/07/09 01:52:38;;;;;;;15.50;8.23;;;22.30;99.90;;;;;;5095109;28;20044;-70
2023/07/09 01:55:04;;;;;;;13.40;8.27;;;22.30;99.90;;;;;;5095293;28;20094;-70
2023/07/09 01:57:33;;;;;;;11.63;8.07;;;22.20;99.90;;;;;;5096312;28;20090;-70
2023/07/09 02:00:03;;;;;;;9.60;7.57;;;22.20;99.90;;;;;;5096462;28;20044;-70
2023/07/09 02:02:29;;;;;;;9.43;7.53;;;22.10;99.90;;;;;;5096291;28;20048;-70
2023/07/09 02:04:56;;;;;;;10.10;7.23;;;22.10;99.90;;;;;;5096261;28;20044;-70
2023/07/09 02:07:23;;;;;;;10.30;7.43;;;22.10;99.90;;;;;;5096265;28;20134;-70
2023/07/09 02:09:50;;;;;;;10.20;7.77;;;22.00;99.90;;;;;;5095006;28;20055;-70
2023/07/09 02:12:16;;;;;;;11.57;7.43;;;22.00;99.90;;;;;;5078225;28;20043;-70
2023/07/09 02:14:43;;;;;;;12.37;7.33;;;22.00;99.90;;;;;;5096177;28;20073;-70
2023/07/09 02:17:10;;;;;;;10.67;8.30;;;22.00;99.90;;;;;;5095175;28;20181;-70
2023/07/09 02:19:36;;;;;;;12.27;7.90;;;22.00;99.90;;;;;;5094751;28;20052;-70
2023/07/09 02:22:02;;;;;;;11.67;7.80;;;21.90;99.90;;;;;;5094996;28;20048;-70
2023/07/09 02:24:28;;;;;;;12.27;8.83;;;21.90;99.90;;;;;;5095443;28;20052;-73
2023/07/09 02:26:55;;;;;;;15.23;8.33;;;21.80;99.90;;;;;;5096155;28;20065;-70
2023/07/09 02:29:21;;;;;;;12.97;8.53;;;21.80;99.90;;;;;;5095886;28;20044;-70
2023/07/09 02:31:50;;;;;;;16.07;7.33;;;21.80;99.90;;;;;;5095543;28;20044;-70
2023/07/09 02:34:17;;;;;;;13.83;7.50;;;21.80;99.90;;;;;;5095520;28;20062;-70
2023/07/09 02:36:43;;;;;;;10.80;7.63;;;21.80;99.90;;;;;;5095459;28;20047;-70
2023/07/09 02:39:13;;;;;;;9.60;7.63;;;21.70;99.90;;;;;;5095740;28;20044;-70
2023/07/09 02:41:40;;;;;;;11.10;8.33;;;21.70;99.90;;;;;;5095380;28;20047;-70
2023/07/09 02:44:06;;;;;;;11.87;7.97;;;21.70;99.90;;;;;;5095555;28;20048;-70
2023/07/09 02:46:32;;;;;;;10.77;7.60;;;21.70;99.90;;;;;;5095326;28;20048;-70
2023/07/09 02:48:58;;;;;;;11.47;8.10;;;21.70;99.90;;;;;;5095544;28;20044;-70
2023/07/09 02:51:26;;;;;;;9.27;7.53;;;21.60;99.90;;;;;;5095473;28;20040;-70
2023/07/09 02:53:56;;;;;;;10.40;7.77;;;21.70;99.90;;;;;;5095070;28;20384;-70
2023/07/09 02:56:22;;;;;;;11.30;8.27;;;21.60;99.90;;;;;;5094929;28;20048;-70
2023/07/09 02:58:49;;;;;;;15.30;8.83;;;21.60;99.90;;;;;;5095108;28;20377;-70
2023/07/09 03:01:15;;;;;;;10.87;7.93;;;21.60;99.90;;;;;;5095270;28;20051;-70
2023/07/09 03:03:41;;;;;;;12.20;8.10;;;21.50;99.90;;;;;;5094949;28;20044;-70
2023/07/09 03:06:07;;;;;;;11.07;7.33;;;21.40;99.90;;;;;;5095302;28;20081;-70
2023/07/09 03:08:32;;;;;;;11.43;7.67;;;21.40;99.90;;;;;;5095288;28;20047;-70
2023/07/09 03:10:58;;;;;;;10.37;8.00;;;21.40;99.90;;;;;;5094923;28;20480;-70
2023/07/09 03:13:24;;;;;;;13.83;7.73;;;21.40;99.90;;;;;;5095057;28;20153;-70
2023/07/09 03:15:59;;;;;;;13.77;8.80;;;21.30;99.90;;;;;;5094762;28;20123;-70
2023/07/09 03:18:25;;;;;;;10.25;7.70;;;21.30;99.90;;;;;;5094949;28;20116;-70
2023/07/09 03:20:50;;;;;;;12.40;8.43;;;21.30;99.90;;;;;;5094650;28;20052;-70
2023/07/09 03:23:16;;;;;;;10.43;7.83;;;21.30;99.90;;;;;;5094842;28;20057;-70
2023/07/09 03:25:44;;;;;;;11.37;8.13;;;21.30;99.90;;;;;;5092933;28;20051;-70
2023/07/09 03:28:11;;;;;;;10.60;8.13;;;21.30;99.90;;;;;;5094758;28;20044;-70
2023/07/09 03:30:41;;;;;;;12.30;8.13;;;21.20;99.90;;;;;;5094493;28;20066;-71
2023/07/09 03:33:07;;;;;;;10.63;8.47;;;21.30;99.90;;;;;;5093646;28;20074;-70
2023/07/09 03:35:34;;;;;;;10.10;8.07;;;21.20;99.90;;;;;;5094772;28;20048;-70
2023/07/09 03:38:00;;;;;;;11.00;8.40;;;21.20;99.90;;;;;;5094339;28;20048;-70
2023/07/09 03:40:26;;;;;;;11.03;8.33;;;21.20;99.90;;;;;;5094543;28;20079;-70
2023/07/09 03:42:52;;;;;;;9.53;7.27;;;21.20;99.90;;;;;;5093046;28;20102;-70
2023/07/09 03:45:17;;;;;;;10.20;7.43;;;21.20;99.90;;;;;;5094517;28;20127;-70
2023/07/09 03:47:43;;;;;;;11.00;8.27;;;21.10;99.90;;;;;;5094215;28;20043;-70
2023/07/09 03:50:10;;;;;;;11.90;8.40;;;21.20;99.90;;;;;;5093403;28;20377;-70
2023/07/09 03:52:35;;;;;;;9.83;7.33;;;21.20;99.90;;;;;;5094609;28;20090;-70
2023/07/09 03:55:03;;;;;;;9.93;7.87;;;21.20;99.90;;;;;;5093959;28;20499;-70
2023/07/09 03:57:30;;;;;;;16.30;8.40;;;21.20;99.90;;;;;;5094225;28;20052;-70
2023/07/09 03:59:56;;;;;;;13.40;8.27;;;21.20;99.90;;;;;;5093944;28;20105;-70
2023/07/09 04:02:22;;;;;;;11.83;8.27;;;21.20;99.90;;;;;;5094105;28;20036;-70
2023/07/09 04:04:48;;;;;;;10.87;8.00;;;21.20;99.90;;;;;;5093721;28;20036;-70
2023/07/09 04:07:15;;;;;;;12.33;8.30;;;21.20;99.90;;;;;;5094021;28;20044;-70
2023/07/09 04:09:41;;;;;;;10.60;8.20;;;21.30;99.90;;;;;;5093077;28;20148;-73
2023/07/09 04:12:07;;;;;;;10.13;8.43;;;21.30;99.90;;;;;;5093895;28;20491;-70
2023/07/09 04:14:33;;;;;;;11.53;8.57;;;21.30;99.90;;;;;;5093848;28;20040;-70
2023/07/09 04:16:59;;;;;;;11.00;7.70;;;21.40;99.90;;;;;;5093538;28;20059;-70
2023/07/09 04:19:25;;;;;;;13.07;8.20;;;21.40;99.90;;;;;;5092666;28;20044;-70
2023/07/09 04:21:50;;;;;;;13.07;8.07;;;21.50;99.90;;;;;;5093494;28;20040;-70
2023/07/09 04:24:17;;;;;;;11.93;8.80;;;21.40;99.90;;;;;;5093566;28;20181;-70
2023/07/09 04:26:43;;;;;;;12.07;8.43;;;21.50;99.90;;;;;;5093593;28;20043;-73
2023/07/09 04:29:10;;;;;;;10.53;7.50;;;21.50;99.90;;;;;;5093926;28;20044;-70
2023/07/09 04:31:37;;;;;;;10.83;7.97;;;21.50;99.90;;;;;;5093388;28;20129;-70
2023/07/09 04:34:03;;;;;;;11.40;8.50;;;21.60;99.90;;;;;;5093311;28;20132;-70
2023/07/09 04:36:29;;;;;;;10.10;8.33;;;21.60;99.90;;;;;;5092307;28;20039;-70
2023/07/09 04:38:55;;;;;;;10.90;8.23;;;21.70;99.90;;;;;;5093212;28;20051;-70
2023/07/09 04:41:21;;;;;;;12.00;9.00;;;21.70;99.90;;;;;;5093435;28;20127;-70
2023/07/09 04:43:46;;;;;;;11.60;8.47;;;21.70;99.90;;;;;;5093019;28;20051;-70
2023/07/09 04:46:12;;;;;;;13.50;9.53;;;21.70;99.90;;;;;;5093391;28;20051;-70
2023/07/09 04:48:38;;;;;;;10.80;8.30;;;21.80;99.90;;;;;;5093035;28;20432;-70
2023/07/09 04:51:04;;;;;;;11.43;7.70;;;21.80;99.90;;;;;;5092996;28;20077;-70
2023/07/09 04:53:30;;;;;;;11.33;8.10;;;21.80;99.90;;;;;;5093211;28;20040;-70
2023/07/09 04:55:56;;;;;;;11.13;8.97;;;21.90;99.90;;;;;;5092566;28;20094;-70
2023/07/09 04:58:22;;;;;;;11.97;8.47;;;21.90;99.90;;;;;;5093083;28;20047;-70
2023/07/09 05:00:50;;;;;;;10.37;8.20;;;22.00;99.90;;;;;;5092799;28;20044;-70
2023/07/09 05:03:16;;;;;;;10.40;8.40;;;22.10;99.90;;;;;;5092036;28;20059;-70
2023/07/09 05:05:45;;;;;;;14.30;9.30;;;22.20;99.90;;;;;;5092886;28;20044;-70
2023/07/09 05:08:12;;;;;;;10.50;8.30;;;22.20;99.90;;;;;;5092698;28;20060;-70
2023/07/09 05:10:45;;;;;;;10.73;8.40;;;22.30;99.90;;;;;;5092954;28;20113;-70
2023/07/09 05:13:12;;;;;;;11.83;9.13;;;22.40;99.90;;;;;;5092777;28;20040;-70
2023/07/09 05:15:44;;;;;;;10.07;8.63;;;22.40;99.90;;;;;;5093003;28;20391;-71
2023/07/09 05:18:10;;;;;;;10.50;7.83;;;22.50;99.90;;;;;;5092698;28;20177;-70
2023/07/09 05:20:36;;;;;;;11.10;8.60;;;22.50;99.90;;;;;;5092643;28;20045;-70
2023/07/09 05:23:02;;;;;;;11.60;8.53;;;22.60;99.90;;;;;;5092532;28;20107;-70
2023/07/09 05:25:28;;;;;;;10.63;9.27;;;22.70;99.90;;;;;;5092632;28;20569;-70
2023/07/09 05:27:54;;;;;;;11.00;8.80;;;22.70;99.90;;;;;;5091347;28;20063;-70
2023/07/09 05:30:20;;;;;;;11.40;9.07;;;22.80;99.90;;;;;;5092758;28;20044;-70
2023/07/09 05:32:47;;;;;;;11.60;8.63;;;22.90;99.90;;;;;;5092754;28;20040;-70
2023/07/09 05:35:13;;;;;;;13.37;7.97;;;23.00;99.90;;;;;;5092477;28;20380;-70
2023/07/09 05:37:39;;;;;;;12.77;8.90;;;23.00;99.90;;;;;;5092769;28;20048;-70
2023/07/09 05:40:06;;;;;;;11.37;8.80;;;23.00;99.90;;;;;;5092747;28;20056;-70
2023/07/09 05:42:32;;;;;;;15.50;9.87;;;23.00;99.90;;;;;;5092685;28;20106;-70
2023/07/09 05:44:58;;;;;;;13.87;9.47;;;23.10;99.90;;;;;;5092035;28;20040;-71
2023/07/09 05:47:24;;;;;;;13.27;9.97;;;23.00;99.90;;;;;;5092643;28;20044;-70
2023/07/09 05:49:50;;;;;;;13.77;9.50;;;23.10;99.90;;;;;;5092550;28;20040;-70
2023/07/09 05:52:17;;;;;;;12.97;8.63;;;23.10;99.90;;;;;;5091933;28;20051;-71
2023/07/09 05:54:43;;;;;;;12.93;8.57;;;23.20;99.90;;;;;;5092469;28;20115;-70
2023/07/09 05:57:10;;;;;;;12.10;8.47;;;23.40;99.90;;;;;;5092359;28;20088;-71
2023/07/09 05:59:36;;;;;;;11.53;8.97;;;23.70;99.90;;;;;;5091285;28;20570;-70
2023/07/09 06:02:03;;;;;;;11.67;8.90;;;24.00;99.90;;;;;;5092166;28;20127;-71
2023/07/09 06:04:30;;;;;;;11.47;8.53;;;24.30;99.90;;;;;;5092625;28;20044;-70
2023/07/09 06:06:57;;;;;;;13.27;9.30;;;24.80;99.90;;;;;;5091862;28;20079;-71
2023/07/09 06:09:22;;;;;;;12.87;9.07;;;25.70;99.90;;;;;;5092743;28;20088;-71
2023/07/09 06:11:48;;;;;;;10.40;8.37;;;26.50;99.90;;;;;;5092415;28;20438;-70
2023/07/09 06:14:16;;;;;;;12.27;8.40;;;27.10;99.90;;;;;;5092110;28;20044;-71
2023/07/09 06:16:43;;;;;;;13.67;8.97;;;27.80;99.90;;;;;;5092297;28;20052;-71
2023/07/09 06:19:09;;;;;;;10.63;8.00;;;28.60;97.70;;;;;;5092056;28;20052;-71
2023/07/09 06:21:34;;;;;;;9.57;7.97;;;29.10;94.70;;;;;;5092266;28;20392;-71
2023/07/09 06:24:00;;;;;;;10.77;7.90;;;29.20;91.90;;;;;;5074051;28;20064;-71
2023/07/09 06:26:26;;;;;;;11.60;7.83;;;29.40;90.70;;;;;;5092449;28;20040;-71
2023/07/09 06:28:52;;;;;;;11.37;8.67;;;29.40;88.40;;;;;;5091003;28;20043;-70
2023/07/09 06:31:20;;;;;;;12.37;7.77;;;29.60;84.70;;;;;;5090991;28;20483;-68
2023/07/09 06:33:47;;;;;;;11.23;8.67;;;29.90;81.80;;;;;;5095883;28;20048;-69
2023/07/09 06:36:13;;;;;;;8.40;7.07;;;30.10;78.20;;;;;;5094574;28;20338;-69
2023/07/09 06:38:39;;;;;;;11.17;8.43;;;30.20;74.80;;;;;;5095754;28;20046;-68
2023/07/09 06:41:04;;;;;;;10.68;8.50;;;30.00;73.30;;;;;;5095425;28;20048;-68
2023/07/09 06:43:31;;;;;;;9.23;7.40;;;30.10;73.70;;;;;;5095864;28;20508;-69
2023/07/09 06:46:01;;;;;;;12.73;8.10;;;30.50;73.00;;;;;;5095640;28;20150;-68
2023/07/09 06:48:28;;;;;;;9.93;7.45;;;31.00;67.90;;;;;;5095589;28;20044;-69
2023/07/09 06:50:56;;;;;;;10.13;7.93;;;31.60;67.00;;;;;;5094671;28;20087;-68
2023/07/09 06:53:22;;;;;;;12.38;8.45;;;32.20;64.80;;;;;;5095110;28;20052;-69
2023/07/09 06:55:48;;;;;;;10.90;8.50;;;32.50;62.00;;;;;;5095327;28;20040;-69
2023/07/09 06:58:16;;;;;;;11.52;8.10;;;32.50;61.20;;;;;;5094998;28;20044;-69
2023/07/09 07:00:42;;;;;;;11.48;8.98;;;32.20;59.50;;;;;;5095482;28;20055;-69
2023/07/09 07:03:09;;;;;;;10.57;8.35;;;31.80;60.10;;;;;;5094956;28;20051;-69
2023/07/09 07:05:35;;;;;;;12.45;8.43;;;31.50;60.80;;;;;;5095105;28;20036;-68
2023/07/09 07:08:02;;;;;;;14.27;9.38;;;31.30;62.00;;;;;;5093425;28;20052;-72
2023/07/09 07:10:29;;;;;;;10.93;9.10;;;31.00;62.80;;;;;;5095279;28;20408;-69
2023/07/09 07:12:55;;;;;;;10.45;8.35;;;30.70;63.20;;;;;;5095085;28;20506;-68
2023/07/09 07:15:22;;;;;;;13.13;9.27;;;30.40;64.90;;;;;;5094671;28;20052;-69
2023/07/09 07:17:48;;;;;;;13.45;8.90;;;30.30;67.20;;;;;;5094998;28;20055;-69
2023/07/09 07:20:16;;;;;;;13.13;9.27;;;30.60;68.10;;;;;;5094664;28;20127;-69
2023/07/09 07:22:41;;;;;;;12.52;9.07;;;31.20;67.30;;;;;;5094919;28;20134;-69
2023/07/09 07:25:08;;;;;;;12.55;9.85;;;31.90;65.80;;;;;;5092673;28;20140;-70
2023/07/09 07:27:36;;;;;;;13.05;10.30;;;32.50;63.00;;;;;;5094018;28;20456;-69
2023/07/09 07:30:02;;;;;;;15.63;10.98;;;32.60;61.00;;;;;;5093242;28;20510;-69
2023/07/09 07:32:28;;;;;;;15.10;11.80;;;32.70;59.60;;;;;;5094434;28;20496;-70
2023/07/09 07:34:54;;;;;;;13.50;11.40;;;32.90;59.00;;;;;;5094637;28;20086;-70
2023/07/09 07:37:20;;;;;;;13.60;11.30;;;33.10;58.40;;;;;;5094322;28;20048;-70
2023/07/09 07:39:47;;;;;;;14.52;11.55;;;33.50;57.50;;;;;;5094588;28;20109;-70
2023/07/09 07:42:13;;;;;;;15.65;11.45;;;33.70;56.70;;;;;;5092922;28;20076;-70
2023/07/09 07:44:38;;;;;;;13.30;11.88;;;33.70;56.10;;;;;;5093144;28;20079;-71
2023/07/09 07:47:05;;;;;;;12.35;10.38;;;33.70;55.80;;;;;;5093146;28;20050;-70
2023/07/09 07:49:31;;;;;;;14.18;11.20;;;33.60;56.50;;;;;;5093359;28;20039;-71
2023/07/09 07:51:57;;;;;;;14.35;12.18;;;33.70;56.70;;;;;;5094299;28;20131;-71
2023/07/09 07:54:22;;;;;;;16.33;11.02;;;33.80;56.40;;;;;;5094052;28;20083;-71
2023/07/09 07:56:48;;;;;;;14.98;12.93;;;33.80;56.30;;;;;;5094255;28;20039;-70
2023/07/09 07:59:15;;;;;;;15.18;12.45;;;33.70;56.00;;;;;;5094001;28;20496;-71
2023/07/09 08:01:40;;;;;;;15.32;12.43;;;33.50;56.20;;;;;;5092959;28;20189;-70
2023/07/09 08:04:06;;;;;;;14.07;11.70;;;33.60;56.40;;;;;;5076342;28;20135;-70
2023/07/09 08:06:32;;;;;;;17.88;13.65;;;33.70;56.80;;;;;;5092716;28;20493;-69
2023/07/09 08:08:58;;;;;;;13.82;11.50;;;33.80;56.80;;;;;;5076103;28;20040;-71
2023/07/09 08:11:24;;;;;;;16.77;13.38;;;34.00;56.70;;;;;;5092667;28;20052;-70
2023/07/09 08:13:50;;;;;;;14.52;13.02;;;34.20;56.30;;;;;;5076000;28;20484;-70
2023/07/09 08:16:16;;;;;;;13.75;12.00;;;34.50;55.80;;;;;;5092630;28;20055;-71
2023/07/09 08:18:42;;;;;;;15.70;14.05;;;34.70;55.90;;;;;;5092836;28;20051;-71
2023/07/09 08:21:09;;;;;;;16.13;13.65;;;35.00;55.30;;;;;;5075924;28;20131;-70
2023/07/09 08:23:35;;;;;;;15.88;14.18;;;35.10;54.30;;;;;;5092464;28;20048;-71
2023/07/09 08:26:02;;;;;;;14.73;13.25;;;35.20;53.90;;;;;;5092078;28;20048;-71
2023/07/09 08:28:29;;;;;;;15.40;12.95;;;35.30;53.80;;;;;;5092128;28;20467;-70
2023/07/09 08:30:55;;;;;;;14.15;11.95;;;35.30;54.30;;;;;;5093545;28;20059;-71
2023/07/09 08:33:21;;;;;;;15.50;13.20;;;35.20;53.90;;;;;;5091961;28;20470;-70
2023/07/09 08:35:51;;;;;;;15.60;13.85;;;35.30;54.10;;;;;;5093506;28;20050;-71
2023/07/09 08:38:18;;;;;;;16.05;13.82;;;35.30;53.50;;;;;;5092309;28;20044;-71
2023/07/09 08:41:20;;;;;;;14.13;12.07;;;35.40;54.40;;;;;;5093424;28;20135;-71
2023/07/09 08:43:55;;;;;;;14.38;12.70;;;35.40;54.00;;;;;;5077038;28;20052;-71
2023/07/09 08:46:56;;;;;;;16.55;13.40;;;35.30;54.80;;;;;;5093198;28;20122;-71
2023/07/09 08:49:33;;;;;;;16.08;12.93;;;35.30;54.60;;;;;;5093117;28;20055;-71
2023/07/09 08:51:59;;;;;;;14.85;12.95;;;35.30;55.20;;;;;;5093411;28;20054;-71
2023/07/09 08:54:32;;;;;;;13.32;11.93;;;35.30;55.40;;;;;;5092526;28;20036;-70
2023/07/09 08:57:02;;;;;;;12.68;11.38;;;35.00;54.90;;;;;;5093419;28;20087;-70
2023/07/09 08:59:28;;;;;;;14.38;10.40;;;34.50;55.10;;;;;;5092479;28;20456;-70
2023/07/09 09:01:59;;;;;;;11.70;9.70;;;33.80;55.30;;;;;;5092255;28;20052;-70
2023/07/09 09:04:31;;;;;;;12.95;10.98;;;33.40;56.30;;;;;;5091010;28;20036;-70
2023/07/09 09:07:21;;;;;;;12.35;11.05;;;33.10;57.20;;;;;;5091609;28;20389;-70
2023/07/09 09:09:57;;;;;;;14.30;10.82;;;32.80;58.90;;;;;;5089042;28;20079;-70
2023/07/09 09:12:41;;;;;;;15.60;10.52;;;32.70;58.80;;;;;;5092266;28;20052;-70
2023/07/09 09:15:21;;;;;;;14.07;10.80;;;32.60;59.70;;;;;;5090010;28;20051;-70
2023/07/09 09:17:52;;;;;;;16.02;10.88;;;32.50;60.10;;;;;;5088605;28;20090;-71
2023/07/09 09:20:23;;;;;;;12.43;10.80;;;32.20;60.50;;;;;;5092115;28;20097;-71
2023/07/09 09:23:13;;;;;;;11.52;8.80;;;32.10;61.00;;;;;;5091497;28;20044;-70
2023/07/09 09:25:44;;;;;;;14.70;9.52;;;32.20;60.60;;;;;;5091054;28;20091;-71
2023/07/09 09:28:10;;;;;;;11.80;9.13;;;32.20;60.40;;;;;;5092954;28;20047;-70
2023/07/09 09:30:36;;;;;;;14.43;10.82;;;32.20;60.60;;;;;;5092301;28;20044;-71
2023/07/09 09:33:06;;;;;;;13.07;9.30;;;32.10;60.20;;;;;;5091350;28;20387;-71
2023/07/09 09:35:38;;;;;;;11.32;8.77;;;32.10;60.70;;;;;;5089785;28;20112;-70
2023/07/09 09:38:12;;;;;;;10.55;8.13;;;32.00;59.90;;;;;;5090186;28;20283;-70
2023/07/09 09:40:38;;;;;;;11.15;7.32;;;31.70;59.20;;;;;;5090051;28;20087;-71
2023/07/09 09:43:13;;;;;;;9.45;7.78;;;31.60;59.70;;;;;;5073362;28;20044;-70
2023/07/09 09:45:40;;;;;;;11.13;8.95;;;31.40;60.60;;;;;;5090993;28;20040;-70
2023/07/09 09:48:19;;;;;;;9.35;7.80;;;31.30;61.20;;;;;;5074895;28;20088;-70
2023/07/09 09:50:47;;;;;;;9.35;6.70;;;31.20;61.60;;;;;;5091857;28;20055;-70
2023/07/09 09:53:22;;;;;;;10.13;7.57;;;31.00;61.30;;;;;;5092553;28;20075;-70
2023/07/09 09:55:50;;;;;;;13.98;9.38;;;31.00;61.70;;;;;;5091399;28;20630;-70
2023/07/09 09:58:17;;;;;;;13.13;9.18;;;30.90;62.20;;;;;;5075046;28;20369;-70
2023/07/09 10:00:49;;;;;;;12.40;8.35;;;30.80;63.20;;;;;;5092178;28;20083;-70
2023/07/09 10:03:15;;;;;;;9.05;7.60;;;30.70;61.60;;;;;;5092432;28;20046;-69
2023/07/09 10:05:56;;;;;;;10.77;6.82;;;30.40;61.40;;;;;;5092249;28;20044;-69
2023/07/09 10:08:36;;;;;;;11.80;7.43;;;30.40;60.60;;;;;;5095691;28;20114;-73
2023/07/09 10:11:30;;;;;;;11.38;6.78;;;30.30;60.10;;;;;;5096328;28;20084;-71
2023/07/09 10:14:03;;;;;;;10.82;7.18;;;30.30;60.80;;;;;;5096239;28;20079;-71
2023/07/09 10:16:38;;;;;;;11.82;6.85;;;30.30;59.10;;;;;;5078107;28;20066;-71
2023/07/09 10:19:04;;;;;;;8.88;6.70;;;30.00;58.80;;;;;;5095271;28;20040;-71
2023/07/09 10:21:41;;;;;;;9.98;6.70;;;29.80;59.20;;;;;;5094958;28;20051;-70
2023/07/09 10:24:33;;;;;;;11.25;7.28;;;29.80;59.80;;;;;;5096201;28;20048;-71
2023/07/09 10:27:11;;;;;;;10.05;6.82;;;29.90;61.40;;;;;;5096274;28;20079;-69
2023/07/09 10:29:45;;;;;;;11.88;7.68;;;30.00;62.10;;;;;;5095721;28;20094;-70
2023/07/09 10:32:20;;;;;;;9.85;7.22;;;30.00;63.30;;;;;;5096204;28;20135;-70
2023/07/09 10:35:16;;;;;;;14.48;7.50;;;29.90;65.30;;;;;;5095665;28;20040;-70
2023/07/09 10:37:50;;;;;;;13.00;7.60;;;30.00;68.70;;;;;;5067467;28;20412;-68
2023/07/09 10:40:24;;;;;;;8.20;6.90;;;30.10;70.40;;;;;;5075379;28;20131;-70
2023/07/09 10:42:52;;;;;;;;;;;30.00;71.60;;;;;;5076376;28;20049;-71
2023/07/09 10:45:42;;;;;;;9.43;6.47;;;30.10;72.40;;;;;;5075384;28;19921;-71
2023/07/09 10:48:18;;;;;;;12.02;6.78;;;30.10;72.10;;;;;;5074637;28;20074;-71
2023/07/09 10:50:52;;;;;;;10.60;7.07;;;30.10;72.30;;;;;;5074176;28;20473;-71
2023/07/09 10:53:33;;;;;;;7.88;5.78;;;30.10;70.70;;;;;;5074565;28;20053;-71
2023/07/09 10:56:11;;;;;;;9.38;6.70;;;30.10;68.40;;;;;;5075601;28;20063;-71
2023/07/09 10:59:28;;;;;;;11.05;6.75;;;30.20;69.20;;;;;;5074931;28;20080;-71
2023/07/09 11:02:00;;;;;;;9.57;6.90;;;30.10;65.80;;;;;;5051932;28;20049;-70
2023/07/09 11:04:42;;;;;;;12.63;6.93;;;30.10;67.00;;;;;;5075165;28;20040;-71
2023/07/09 11:07:14;;;;;;;9.98;6.75;;;30.10;68.30;;;;;;5074073;28;20461;-70
2023/07/09 11:09:43;;;;;;;10.35;6.70;;;30.10;68.80;;;;;;5074893;28;20114;-68
2023/07/09 11:12:17;;;;;;;9.25;6.78;;;30.10;68.80;;;;;;5074945;28;20052;-70
2023/07/09 11:14:51;;;;;;;7.97;6.28;;;30.10;69.70;;;;;;5074774;28;20052;-71
2023/07/09 11:17:22;;;;;;;11.32;6.57;;;30.00;70.80;;;;;;5074724;28;20051;-70
2023/07/09 11:19:57;;;;;;;11.10;6.60;;;30.00;71.50;;;;;;5074680;28;20055;-70
2023/07/09 11:22:36;;;;;;;8.45;6.18;;;29.90;69.20;;;;;;5074859;28;20442;-70
2023/07/09 11:25:10;;;;;;;11.95;6.32;;;29.90;67.90;;;;;;5074636;28;20044;-71
2023/07/09 11:27:49;;;;;;;9.18;5.78;;;29.90;67.50;;;;;;5073393;28;20048;-71
2023/07/09 11:30:25;;;;;;;10.00;5.85;;;29.90;63.20;;;;;;5074722;28;20040;-70
2023/07/09 11:32:57;;;;;;;9.30;5.97;;;29.90;62.70;;;;;;5074322;28;20088;-70
2023/07/09 11:35:25;;;;;;;7.88;5.90;;;29.90;63.30;;;;;;5074442;28;20036;-70
2023/07/09 11:37:55;;;;;;;8.07;6.05;;;29.90;63.30;;;;;;5074123;28;20234;-71
2023/07/09 11:40:22;;;;;;;8.18;6.40;;;29.80;63.40;;;;;;5074429;28;20064;-70
2023/07/09 11:42:51;;;;;;;9.57;5.57;;;29.90;62.40;;;;;;5074084;28;20052;-71
2023/07/09 11:45:22;;;;;;;8.13;6.00;;;29.90;62.60;;;;;;5073024;28;20070;-70
2023/07/09 11:47:55;;;;;;;12.57;6.35;;;29.90;61.90;;;;;;5074166;28;20063;-71
2023/07/09 11:50:23;;;;;;;10.05;5.47;;;29.80;61.90;;;;;;5074211;28;20053;-70
2023/07/09 11:53:06;;;;;;;8.82;6.32;;;29.70;62.80;;;;;;5073837;28;20557;-70
2023/07/09 11:55:40;;;;;;;9.90;6.22;;;29.60;62.30;;;;;;5074163;28;20048;-70
2023/07/09 11:58:10;;;;;;;7.30;5.78;;;29.60;60.90;;;;;;5074099;28;20040;-70
2023/07/09 12:00:48;;;;;;;8.20;5.53;;;29.60;61.90;;;;;;5073962;28;20055;-72
2023/07/09 12:03:32;;;;;;;9.50;5.50;;;29.60;62.10;;;;;;5083259;28;20048;-71
2023/07/09 12:06:13;;;;;;;6.63;5.05;;;29.70;62.10;;;;;;5089176;28;20044;-71
2023/07/09 12:08:42;;;;;;;9.10;5.57;;;29.70;59.80;;;;;;5089172;28;20060;-71
2023/07/09 12:11:29;;;;;;;10.60;5.68;;;29.70;61.10;;;;;;5091554;28;20051;-71
2023/07/09 12:14:20;;;;;;;9.05;5.63;;;29.60;59.80;;;;;;5088854;28;20044;-71
2023/07/09 12:16:48;;;;;;;8.27;6.05;;;29.70;61.20;;;;;;5088725;28;20040;-73
2023/07/09 12:19:18;;;;;;;9.25;6.40;;;29.70;61.30;;;;;;5085969;28;20048;-73
2023/07/09 12:21:46;;;;;;;8.68;5.70;;;29.70;61.40;;;;;;5092436;28;20059;-72
2023/07/09 12:24:17;;;;;;;9.23;5.50;;;29.70;61.40;;;;;;5089196;28;20101;-71
2023/07/09 12:26:47;;;;;;;10.35;5.82;;;29.70;59.70;;;;;;5093296;28;20181;-70
2023/07/09 12:29:12;;;;;;;8.25;5.32;;;29.70;59.50;;;;;;5091911;28;20052;-70
2023/07/09 12:31:39;;;;;;;8.98;5.78;;;29.70;59.60;;;;;;5092231;28;20059;-71
2023/07/09 12:34:05;;;;;;;9.55;5.80;;;29.70;57.70;;;;;;5092583;28;20152;-71
2023/07/09 12:36:31;;;;;;;9.02;5.13;;;29.60;58.30;;;;;;5093038;28;20044;-70
2023/07/09 12:39:03;;;;;;;8.75;5.53;;;29.70;58.20;;;;;;5092877;28;20048;-70
2023/07/09 12:41:37;;;;;;;9.02;5.72;;;29.70;57.90;;;;;;5093075;28;20129;-70
2023/07/09 12:44:04;;;;;;;7.22;5.55;;;29.70;58.70;;;;;;5089292;28;20074;-71
2023/07/09 12:46:30;;;;;;;7.43;5.30;;;29.70;58.20;;;;;;5087341;28;20043;-71
2023/07/09 12:48:56;;;;;;;8.93;5.57;;;29.70;57.60;;;;;;5089831;28;20403;-71
2023/07/09 12:51:24;;;;;;;7.88;5.70;;;29.70;57.30;;;;;;5089450;28;20411;-70